createdAt,value
2017-09-20T00:00:32.102Z,0
2017-09-20T00:01:31.845Z,0
2017-09-20T00:02:31.754Z,0
2017-09-20T00:03:31.116Z,0
2017-09-20T00:04:31.798Z,0
2017-09-20T00:05:31.769Z,0
2017-09-20T00:06:31.370Z,0
2017-09-20T00:07:31.064Z,0
2017-09-20T00:08:31.340Z,0
2017-09-20T00:09:31.304Z,0
2017-09-20T00:10:31.298Z,0
2017-09-20T00:11:31.621Z,0
2017-09-20T00:12:31.259Z,0
2017-09-20T00:13:31.561Z,0
2017-09-20T00:14:31.607Z,0
2017-09-20T00:15:31.849Z,0
2017-09-20T00:16:31.548Z,0
2017-09-20T00:17:31.490Z,0
2017-09-20T00:18:31.178Z,0
2017-09-20T00:19:31.485Z,0
2017-09-20T00:20:31.438Z,0
2017-09-20T00:21:31.211Z,0
2017-09-20T00:22:31.719Z,0
2017-09-20T00:23:31.058Z,0
2017-09-20T00:24:31.049Z,0
2017-09-20T00:25:31.324Z,0
2017-09-20T00:26:30.989Z,0
2017-09-20T00:27:31.598Z,0
2017-09-20T00:28:31.598Z,0
2017-09-20T00:29:30.938Z,0
2017-09-20T00:30:31.540Z,0
2017-09-20T00:31:31.249Z,0
2017-09-20T00:32:30.884Z,0
2017-09-20T00:33:31.189Z,0
2017-09-20T00:34:31.142Z,0
2017-09-20T00:35:31.141Z,0
2017-09-20T00:36:31.125Z,0
2017-09-20T00:37:31.149Z,0
2017-09-20T00:38:31.141Z,0
2017-09-20T00:39:31.156Z,0
2017-09-20T00:40:31.110Z,0
2017-09-20T00:41:31.156Z,0
2017-09-20T00:42:31.348Z,0
2017-09-20T00:43:31.310Z,0
2017-09-20T00:44:31.278Z,0
2017-09-20T00:45:31.282Z,0
2017-09-20T00:46:31.282Z,0
2017-09-20T00:47:31.219Z,0
2017-09-20T00:48:31.250Z,0
2017-09-20T00:49:30.996Z,0
2017-09-20T00:50:31.156Z,0
2017-09-20T00:51:31.139Z,0
2017-09-20T00:52:31.140Z,0
2017-09-20T00:53:31.135Z,0
2017-09-20T00:54:31.090Z,0
2017-09-20T00:55:31.080Z,0
2017-09-20T00:56:30.508Z,0
2017-09-20T00:57:31.031Z,0
2017-09-20T00:58:30.710Z,0
2017-09-20T00:59:31.150Z,0
2017-09-20T01:00:30.679Z,0
2017-09-20T01:01:30.024Z,0
2017-09-20T01:02:30.959Z,0
2017-09-20T01:03:30.289Z,0
2017-09-20T01:04:30.619Z,0
2017-09-20T01:05:30.999Z,0
2017-09-20T01:06:30.617Z,0
2017-09-20T01:07:30.844Z,0
2017-09-20T01:08:30.219Z,0
2017-09-20T01:09:30.625Z,0
2017-09-20T01:10:30.489Z,0
2017-09-20T01:11:30.138Z,0
2017-09-20T01:12:30.738Z,0
2017-09-20T01:13:30.715Z,0
2017-09-20T01:14:30.388Z,0
2017-09-20T01:15:30.720Z,0
2017-09-20T01:16:30.039Z,0
2017-09-20T01:17:30.411Z,0
2017-09-20T01:18:29.692Z,0
2017-09-20T01:19:30.089Z,0
2017-09-20T01:20:30.717Z,0
2017-09-20T01:21:30.607Z,0
2017-09-20T01:22:30.556Z,0
2017-09-20T01:23:30.292Z,0
2017-09-20T01:24:30.610Z,0
2017-09-20T01:25:30.468Z,0
2017-09-20T01:26:30.152Z,0
2017-09-20T01:27:30.271Z,0
2017-09-20T01:28:29.799Z,0
2017-09-20T01:29:29.789Z,0
2017-09-20T01:30:30.433Z,0
2017-09-20T01:31:29.762Z,0
2017-09-20T01:32:30.039Z,0
2017-09-20T01:33:30.138Z,0
2017-09-20T01:34:30.369Z,0
2017-09-20T01:35:29.660Z,0
2017-09-20T01:36:30.090Z,0
2017-09-20T01:37:29.950Z,0
2017-09-20T01:38:29.602Z,0
2017-09-20T01:39:29.309Z,0
2017-09-20T01:40:29.954Z,0
2017-09-20T01:41:29.666Z,0
2017-09-20T01:42:30.219Z,0
2017-09-20T01:43:29.892Z,0
2017-09-20T01:44:29.502Z,0
2017-09-20T01:45:29.475Z,0
2017-09-20T01:46:29.456Z,0
2017-09-20T01:47:29.559Z,0
2017-09-20T01:48:29.408Z,0
2017-09-20T01:49:29.094Z,0
2017-09-20T01:50:29.734Z,0
2017-09-20T01:51:29.360Z,0
2017-09-20T01:52:29.339Z,0
2017-09-20T01:53:29.682Z,0
2017-09-20T01:54:29.640Z,0
2017-09-20T01:55:29.929Z,0
2017-09-20T01:56:29.258Z,0
2017-09-20T01:57:29.968Z,0
2017-09-20T01:58:28.919Z,0
2017-09-20T01:59:29.209Z,0
2017-09-20T02:00:29.607Z,0
2017-09-20T02:01:29.791Z,0
2017-09-20T02:02:29.929Z,0
2017-09-20T02:03:29.122Z,0
2017-09-20T02:04:29.138Z,0
2017-09-20T02:05:29.087Z,0
2017-09-20T02:06:29.781Z,0
2017-09-20T02:07:29.050Z,0
2017-09-20T02:08:29.029Z,0
2017-09-20T02:09:29.329Z,0
2017-09-20T02:10:28.991Z,0
2017-09-20T02:11:29.292Z,0
2017-09-20T02:12:29.578Z,0
2017-09-20T02:13:29.705Z,0
2017-09-20T02:14:29.258Z,0
2017-09-20T02:15:29.211Z,0
2017-09-20T02:16:29.183Z,0
2017-09-20T02:17:29.189Z,0
2017-09-20T02:18:29.136Z,0
2017-09-20T02:19:29.189Z,0
2017-09-20T02:20:29.120Z,0
2017-09-20T02:21:29.431Z,0
2017-09-20T02:22:28.779Z,0
2017-09-20T02:23:28.809Z,0
2017-09-20T02:24:29.039Z,0
2017-09-20T02:25:29.036Z,0
2017-09-20T02:26:28.990Z,0
2017-09-20T02:27:28.658Z,0
2017-09-20T02:28:29.258Z,0
2017-09-20T02:29:28.929Z,0
2017-09-20T02:30:28.634Z,0
2017-09-20T02:31:28.911Z,0
2017-09-20T02:32:28.881Z,0
2017-09-20T02:33:29.186Z,0
2017-09-20T02:34:28.869Z,0
2017-09-20T02:35:28.868Z,0
2017-09-20T02:36:29.121Z,0
2017-09-20T02:37:28.800Z,0
2017-09-20T02:38:28.867Z,0
2017-09-20T02:39:28.750Z,0
2017-09-20T02:40:28.728Z,0
2017-09-20T02:41:28.705Z,0
2017-09-20T02:42:28.710Z,0
2017-09-20T02:43:28.673Z,0
2017-09-20T02:44:28.690Z,0
2017-09-20T02:45:28.950Z,0
2017-09-20T02:46:27.978Z,0
2017-09-20T02:47:28.302Z,0
2017-09-20T02:48:28.879Z,0
2017-09-20T02:49:28.859Z,0
2017-09-20T02:50:28.532Z,0
2017-09-20T02:51:28.847Z,0
2017-09-20T02:52:28.248Z,0
2017-09-20T02:53:28.532Z,0
2017-09-20T02:54:27.919Z,0
2017-09-20T02:55:28.500Z,0
2017-09-20T02:56:28.099Z,0
2017-09-20T02:57:28.428Z,0
2017-09-20T02:58:28.383Z,0
2017-09-20T02:59:28.041Z,0
2017-09-20T03:00:28.338Z,0
2017-09-20T03:01:28.314Z,0
2017-09-20T03:02:28.296Z,0
2017-09-20T03:03:27.331Z,0
2017-09-20T03:04:28.600Z,0
2017-09-20T03:05:27.930Z,0
2017-09-20T03:06:28.219Z,0
2017-09-20T03:07:28.692Z,0
2017-09-20T03:08:28.468Z,0
2017-09-20T03:09:28.220Z,0
2017-09-20T03:10:28.224Z,0
2017-09-20T03:11:28.110Z,0
2017-09-20T03:12:27.460Z,0
2017-09-20T03:13:28.405Z,0
2017-09-20T03:14:28.381Z,0
2017-09-20T03:15:28.062Z,0
2017-09-20T03:16:28.318Z,0
2017-09-20T03:17:28.339Z,0
2017-09-20T03:18:28.278Z,0
2017-09-20T03:19:27.644Z,0
2017-09-20T03:20:28.046Z,0
2017-09-20T03:21:27.647Z,0
2017-09-20T03:22:27.893Z,0
2017-09-20T03:23:27.553Z,0
2017-09-20T03:24:27.528Z,0
2017-09-20T03:25:27.855Z,0
2017-09-20T03:26:27.505Z,0
2017-09-20T03:27:27.481Z,0
2017-09-20T03:28:28.103Z,0
2017-09-20T03:29:27.796Z,0
2017-09-20T03:30:27.417Z,0
2017-09-20T03:31:28.008Z,0
2017-09-20T03:32:27.088Z,0
2017-09-20T03:33:27.993Z,0
2017-09-20T03:34:27.353Z,0
2017-09-20T03:35:27.380Z,0
2017-09-20T03:36:27.004Z,0
2017-09-20T03:37:27.292Z,0
2017-09-20T03:38:26.966Z,0
2017-09-20T03:39:27.919Z,0
2017-09-20T03:40:27.645Z,0
2017-09-20T03:41:27.837Z,0
2017-09-20T03:42:27.520Z,0
2017-09-20T03:43:27.512Z,0
2017-09-20T03:44:26.880Z,0
2017-09-20T03:45:27.457Z,0
2017-09-20T03:46:27.735Z,0
2017-09-20T03:47:26.819Z,0
2017-09-20T03:48:27.495Z,0
2017-09-20T03:49:27.684Z,0
2017-09-20T03:50:27.469Z,0
2017-09-20T03:51:27.649Z,0
2017-09-20T03:52:27.638Z,0
2017-09-20T03:53:26.401Z,0
2017-09-20T03:54:26.988Z,0
2017-09-20T03:55:26.991Z,0
2017-09-20T03:56:27.250Z,0
2017-09-20T03:57:27.208Z,0
2017-09-20T03:58:27.199Z,0
2017-09-20T03:59:26.879Z,0
2017-09-20T04:00:26.548Z,0
2017-09-20T04:01:26.829Z,0
2017-09-20T04:02:27.430Z,0
2017-09-20T04:03:26.779Z,0
2017-09-20T04:04:27.075Z,0
2017-09-20T04:05:27.071Z,0
2017-09-20T04:06:27.356Z,0
2017-09-20T04:07:26.717Z,0
2017-09-20T04:08:27.114Z,0
2017-09-20T04:09:26.681Z,0
2017-09-20T04:10:26.341Z,0
2017-09-20T04:11:26.341Z,0
2017-09-20T04:12:26.922Z,0
2017-09-20T04:13:27.208Z,0
2017-09-20T04:14:26.901Z,0
2017-09-20T04:15:26.560Z,0
2017-09-20T04:16:26.529Z,0
2017-09-20T04:17:26.849Z,0
2017-09-20T04:18:26.503Z,0
2017-09-20T04:19:26.500Z,0
2017-09-20T04:20:27.141Z,0
2017-09-20T04:21:26.763Z,0
2017-09-20T04:22:26.740Z,0
2017-09-20T04:23:26.719Z,0
2017-09-20T04:24:26.719Z,0
2017-09-20T04:25:26.685Z,0
2017-09-20T04:26:26.389Z,0
2017-09-20T04:27:26.951Z,0
2017-09-20T04:28:26.598Z,0
2017-09-20T04:29:26.310Z,0
2017-09-20T04:30:26.597Z,0
2017-09-20T04:31:26.569Z,0
2017-09-20T04:32:26.540Z,0
2017-09-20T04:33:26.573Z,0
2017-09-20T04:34:26.214Z,0
2017-09-20T04:35:26.799Z,0
2017-09-20T04:36:26.469Z,0
2017-09-20T04:37:26.476Z,0
2017-09-20T04:38:26.410Z,0
2017-09-20T04:39:26.451Z,0
2017-09-20T04:40:26.383Z,0
2017-09-20T04:41:26.679Z,0
2017-09-20T04:42:26.358Z,0
2017-09-20T04:43:26.649Z,0
2017-09-20T04:44:26.300Z,0
2017-09-20T04:45:26.287Z,0
2017-09-20T04:46:26.572Z,0
2017-09-20T04:47:26.568Z,0
2017-09-20T04:48:25.913Z,0
2017-09-20T04:49:26.226Z,0
2017-09-20T04:50:26.537Z,0
2017-09-20T04:51:26.197Z,0
2017-09-20T04:52:26.469Z,0
2017-09-20T04:53:26.458Z,0
2017-09-20T04:54:26.441Z,0
2017-09-20T04:55:26.421Z,0
2017-09-20T04:56:25.763Z,0
2017-09-20T04:57:26.379Z,0
2017-09-20T04:58:26.337Z,0
2017-09-20T04:59:25.999Z,0
2017-09-20T05:00:25.367Z,0
2017-09-20T05:01:25.680Z,0
2017-09-20T05:02:25.970Z,0
2017-09-20T05:03:26.261Z,0
2017-09-20T05:04:25.930Z,0
2017-09-20T05:05:26.201Z,0
2017-09-20T05:06:26.200Z,0
2017-09-20T05:07:26.162Z,0
2017-09-20T05:08:26.158Z,0
2017-09-20T05:09:26.132Z,0
2017-09-20T05:10:25.781Z,0
2017-09-20T05:11:25.777Z,0
2017-09-20T05:12:25.450Z,0
2017-09-20T05:13:25.755Z,0
2017-09-20T05:14:25.763Z,0
2017-09-20T05:15:25.704Z,0
2017-09-20T05:16:25.994Z,0
2017-09-20T05:17:25.978Z,0
2017-09-20T05:18:25.319Z,0
2017-09-20T05:19:25.934Z,0
2017-09-20T05:20:25.590Z,0
2017-09-20T05:21:25.320Z,0
2017-09-20T05:22:25.242Z,0
2017-09-20T05:23:25.220Z,0
2017-09-20T05:24:25.580Z,0
2017-09-20T05:25:25.189Z,0
2017-09-20T05:26:25.146Z,5
2017-09-20T05:27:25.200Z,0
2017-09-20T05:28:24.828Z,0
2017-09-20T05:29:25.418Z,0
2017-09-20T05:30:25.084Z,0
2017-09-20T05:31:25.120Z,5
2017-09-20T05:32:25.066Z,5
2017-09-20T05:33:25.358Z,5
2017-09-20T05:34:25.065Z,5
2017-09-20T05:35:24.991Z,5
2017-09-20T05:36:25.290Z,5
2017-09-20T05:37:24.986Z,5
2017-09-20T05:38:25.586Z,5
2017-09-20T05:39:24.926Z,5
2017-09-20T05:40:24.890Z,5
2017-09-20T05:41:25.200Z,5
2017-09-20T05:42:25.180Z,5
2017-09-20T05:43:25.142Z,5
2017-09-20T05:44:25.153Z,5
2017-09-20T05:45:25.132Z,5
2017-09-20T05:46:25.439Z,5
2017-09-20T05:47:24.800Z,5
2017-09-20T05:48:25.389Z,5
2017-09-20T05:49:24.718Z,5
2017-09-20T05:50:25.020Z,5
2017-09-20T05:51:24.785Z,5
2017-09-20T05:52:24.950Z,5
2017-09-20T05:53:24.950Z,5
2017-09-20T05:54:25.240Z,10
2017-09-20T05:55:24.908Z,10
2017-09-20T05:56:25.001Z,10
2017-09-20T05:57:25.194Z,10
2017-09-20T05:58:24.861Z,10
2017-09-20T05:59:24.529Z,10
2017-09-20T06:00:25.148Z,10
2017-09-20T06:01:25.115Z,10
2017-09-20T06:02:24.479Z,10
2017-09-20T06:03:24.752Z,10
2017-09-20T06:04:24.790Z,10
2017-09-20T06:05:24.719Z,10
2017-09-20T06:06:24.418Z,10
2017-09-20T06:07:24.378Z,10
2017-09-20T06:08:23.746Z,10
2017-09-20T06:09:24.642Z,10
2017-09-20T06:10:24.670Z,10
2017-09-20T06:11:24.923Z,10
2017-09-20T06:12:24.589Z,15
2017-09-20T06:13:23.948Z,15
2017-09-20T06:14:24.265Z,15
2017-09-20T06:15:23.902Z,15
2017-09-20T06:16:24.192Z,15
2017-09-20T06:17:24.810Z,15
2017-09-20T06:18:24.146Z,15
2017-09-20T06:19:24.571Z,15
2017-09-20T06:20:24.259Z,15
2017-09-20T06:21:24.739Z,15
2017-09-20T06:22:24.713Z,15
2017-09-20T06:23:24.091Z,15
2017-09-20T06:24:24.409Z,15
2017-09-20T06:25:24.362Z,15
2017-09-20T06:26:24.622Z,15
2017-09-20T06:27:24.600Z,15
2017-09-20T06:28:24.602Z,15
2017-09-20T06:29:24.388Z,15
2017-09-20T06:30:24.550Z,15
2017-09-20T06:31:24.227Z,15
2017-09-20T06:32:24.191Z,20
2017-09-20T06:33:24.202Z,20
2017-09-20T06:34:24.172Z,20
2017-09-20T06:35:24.461Z,25
2017-09-20T06:36:24.449Z,25
2017-09-20T06:37:24.142Z,30
2017-09-20T06:38:24.110Z,30
2017-09-20T06:39:24.378Z,35
2017-09-20T06:40:24.356Z,35
2017-09-20T06:41:24.016Z,35
2017-09-20T06:42:24.018Z,35
2017-09-20T06:43:24.052Z,35
2017-09-20T06:44:23.950Z,35
2017-09-20T06:45:23.953Z,35
2017-09-20T06:46:23.957Z,35
2017-09-20T06:47:24.219Z,35
2017-09-20T06:48:24.207Z,30
2017-09-20T06:49:24.161Z,30
2017-09-20T06:50:24.168Z,30
2017-09-20T06:51:23.524Z,30
2017-09-20T06:52:24.115Z,30
2017-09-20T06:53:24.110Z,30
2017-09-20T06:54:24.072Z,35
2017-09-20T06:55:24.085Z,35
2017-09-20T06:56:24.050Z,35
2017-09-20T06:57:24.028Z,35
2017-09-20T06:58:24.001Z,35
2017-09-20T06:59:24.034Z,35
2017-09-20T07:00:23.339Z,40
2017-09-20T07:01:23.318Z,40
2017-09-20T07:02:23.299Z,40
2017-09-20T07:03:23.297Z,40
2017-09-20T07:04:23.573Z,40
2017-09-20T07:05:23.883Z,40
2017-09-20T07:06:23.861Z,35
2017-09-20T07:07:23.597Z,35
2017-09-20T07:08:23.616Z,35
2017-09-20T07:09:23.540Z,30
2017-09-20T07:10:23.754Z,30
2017-09-20T07:11:23.445Z,30
2017-09-20T07:12:23.768Z,30
2017-09-20T07:13:22.837Z,30
2017-09-20T07:14:23.065Z,30
2017-09-20T07:15:23.670Z,30
2017-09-20T07:16:23.659Z,30
2017-09-20T07:17:23.650Z,25
2017-09-20T07:18:23.602Z,25
2017-09-20T07:19:23.634Z,25
2017-09-20T07:20:23.277Z,25
2017-09-20T07:21:23.581Z,25
2017-09-20T07:22:22.607Z,25
2017-09-20T07:23:23.510Z,25
2017-09-20T07:24:22.940Z,20
2017-09-20T07:25:23.493Z,25
2017-09-20T07:26:22.857Z,25
2017-09-20T07:27:22.835Z,25
2017-09-20T07:28:23.118Z,25
2017-09-20T07:29:23.391Z,25
2017-09-20T07:30:22.820Z,25
2017-09-20T07:31:23.167Z,25
2017-09-20T07:32:22.760Z,25
2017-09-20T07:33:22.104Z,25
2017-09-20T07:34:23.328Z,20
2017-09-20T07:35:22.701Z,20
2017-09-20T07:36:22.967Z,20
2017-09-20T07:37:22.636Z,20
2017-09-20T07:38:22.921Z,20
2017-09-20T07:39:22.657Z,15
2017-09-20T07:40:22.890Z,15
2017-09-20T07:41:22.874Z,15
2017-09-20T07:42:23.154Z,15
2017-09-20T07:43:23.169Z,15
2017-09-20T07:44:23.147Z,20
2017-09-20T07:45:22.476Z,20
2017-09-20T07:46:22.765Z,25
2017-09-20T07:47:23.054Z,30
2017-09-20T07:48:22.110Z,30
2017-09-20T07:49:22.094Z,30
2017-09-20T07:50:22.369Z,35
2017-09-20T07:51:22.767Z,35
2017-09-20T07:52:22.347Z,35
2017-09-20T07:53:22.703Z,30
2017-09-20T07:54:22.937Z,30
2017-09-20T07:55:22.618Z,30
2017-09-20T07:56:22.262Z,30
2017-09-20T07:57:22.662Z,35
2017-09-20T07:58:22.863Z,35
2017-09-20T07:59:22.645Z,40
2017-09-20T08:00:22.304Z,40
2017-09-20T08:01:22.174Z,40
2017-09-20T08:02:22.150Z,40
2017-09-20T08:03:22.750Z,40
2017-09-20T08:04:22.416Z,40
2017-09-20T08:05:22.441Z,40
2017-09-20T08:06:22.485Z,40
2017-09-20T08:07:22.379Z,40
2017-09-20T08:08:22.051Z,40
2017-09-20T08:09:22.337Z,35
2017-09-20T08:10:22.428Z,30
2017-09-20T08:11:22.398Z,25
2017-09-20T08:12:21.658Z,20
2017-09-20T08:13:22.589Z,20
2017-09-20T08:14:21.960Z,20
2017-09-20T08:15:22.258Z,20
2017-09-20T08:16:22.294Z,25
2017-09-20T08:17:22.211Z,30
2017-09-20T08:18:21.546Z,35
2017-09-20T08:19:22.183Z,40
2017-09-20T08:20:22.440Z,40
2017-09-20T08:21:21.800Z,45
2017-09-20T08:22:21.778Z,45
2017-09-20T08:23:21.757Z,45
2017-09-20T08:24:22.361Z,45
2017-09-20T08:25:21.740Z,40
2017-09-20T08:26:21.704Z,40
2017-09-20T08:27:22.307Z,35
2017-09-20T08:28:22.016Z,35
2017-09-20T08:29:22.278Z,40
2017-09-20T08:30:22.028Z,40
2017-09-20T08:31:21.607Z,40
2017-09-20T08:32:22.217Z,40
2017-09-20T08:33:21.877Z,40
2017-09-20T08:34:21.561Z,40
2017-09-20T08:35:21.509Z,45
2017-09-20T08:36:21.508Z,50
2017-09-20T08:37:21.797Z,60
2017-09-20T08:38:21.800Z,70
2017-09-20T08:39:22.091Z,90
2017-09-20T08:40:21.799Z,110
2017-09-20T08:41:21.728Z,125
2017-09-20T08:42:21.714Z,135
2017-09-20T08:43:21.702Z,130
2017-09-20T08:44:21.771Z,120
2017-09-20T08:45:21.787Z,115
2017-09-20T08:46:21.305Z,110
2017-09-20T08:47:21.614Z,115
2017-09-20T08:48:21.584Z,125
2017-09-20T08:49:21.568Z,130
2017-09-20T08:50:21.569Z,130
2017-09-20T08:51:21.552Z,125
2017-09-20T08:52:21.907Z,125
2017-09-20T08:53:21.529Z,125
2017-09-20T08:54:21.787Z,125
2017-09-20T08:55:21.787Z,130
2017-09-20T08:56:21.431Z,135
2017-09-20T08:57:21.736Z,155
2017-09-20T08:58:21.729Z,165
2017-09-20T08:59:21.402Z,170
2017-09-20T09:00:21.396Z,190
2017-09-20T09:01:21.648Z,215
2017-09-20T09:02:21.428Z,225
2017-09-20T09:03:21.315Z,195
2017-09-20T09:04:21.638Z,185
2017-09-20T09:05:21.620Z,170
2017-09-20T09:06:21.605Z,170
2017-09-20T09:07:21.646Z,165
2017-09-20T09:08:21.627Z,160
2017-09-20T09:09:21.205Z,150
2017-09-20T09:10:21.499Z,140
2017-09-20T09:11:20.911Z,140
2017-09-20T09:12:21.199Z,140
2017-09-20T09:13:21.159Z,145
2017-09-20T09:14:21.447Z,140
2017-09-20T09:15:21.098Z,150
2017-09-20T09:16:21.461Z,165
2017-09-20T09:17:21.417Z,185
2017-09-20T09:18:21.067Z,170
2017-09-20T09:19:21.028Z,190
2017-09-20T09:20:21.025Z,170
2017-09-20T09:21:21.008Z,175
2017-09-20T09:22:20.960Z,195
2017-09-20T09:23:20.985Z,180
2017-09-20T09:24:20.919Z,165
2017-09-20T09:25:20.657Z,185
2017-09-20T09:26:21.219Z,175
2017-09-20T09:27:20.940Z,165
2017-09-20T09:28:21.189Z,155
2017-09-20T09:29:21.168Z,145
2017-09-20T09:30:20.984Z,155
2017-09-20T09:31:21.222Z,180
2017-09-20T09:32:21.110Z,205
2017-09-20T09:33:20.890Z,215
2017-09-20T09:34:21.070Z,200
2017-09-20T09:35:21.107Z,225
2017-09-20T09:36:21.148Z,215
2017-09-20T09:37:20.407Z,235
2017-09-20T09:38:21.023Z,210
2017-09-20T09:39:20.067Z,185
2017-09-20T09:40:20.974Z,150
2017-09-20T09:41:20.989Z,140
2017-09-20T09:42:21.069Z,125
2017-09-20T09:43:20.941Z,130
2017-09-20T09:44:20.732Z,130
2017-09-20T09:45:20.258Z,120
2017-09-20T09:46:20.568Z,125
2017-09-20T09:47:20.894Z,145
2017-09-20T09:48:20.220Z,135
2017-09-20T09:49:20.199Z,125
2017-09-20T09:50:20.527Z,115
2017-09-20T09:51:20.862Z,105
2017-09-20T09:52:20.150Z,105
2017-09-20T09:53:20.140Z,115
2017-09-20T09:54:20.124Z,135
2017-09-20T09:55:20.411Z,150
2017-09-20T09:56:20.704Z,145
2017-09-20T09:57:20.069Z,150
2017-09-20T09:58:20.380Z,150
2017-09-20T09:59:20.407Z,155
2017-09-20T10:00:20.632Z,160
2017-09-20T10:01:20.311Z,165
2017-09-20T10:02:20.291Z,155
2017-09-20T10:03:20.314Z,155
2017-09-20T10:04:19.640Z,155
2017-09-20T10:05:20.561Z,140
2017-09-20T10:06:20.279Z,130
2017-09-20T10:07:19.878Z,120
2017-09-20T10:08:19.869Z,125
2017-09-20T10:09:20.172Z,120
2017-09-20T10:10:20.181Z,115
2017-09-20T10:11:20.448Z,115
2017-09-20T10:12:20.131Z,115
2017-09-20T10:13:20.529Z,125
2017-09-20T10:14:20.422Z,130
2017-09-20T10:15:19.762Z,145
2017-09-20T10:16:19.428Z,170
2017-09-20T10:17:20.366Z,190
2017-09-20T10:18:19.397Z,190
2017-09-20T10:19:20.347Z,205
2017-09-20T10:20:19.987Z,220
2017-09-20T10:21:19.348Z,215
2017-09-20T10:22:19.674Z,210
2017-09-20T10:23:19.655Z,215
2017-09-20T10:24:19.624Z,230
2017-09-20T10:25:19.959Z,240
2017-09-20T10:26:19.980Z,235
2017-09-20T10:27:19.879Z,230
2017-09-20T10:28:19.863Z,240
2017-09-20T10:29:19.901Z,285
2017-09-20T10:30:19.509Z,275
2017-09-20T10:31:19.598Z,260
2017-09-20T10:32:19.167Z,240
2017-09-20T10:33:19.163Z,205
2017-09-20T10:34:19.766Z,205
2017-09-20T10:35:20.218Z,205
2017-09-20T10:36:19.716Z,185
2017-09-20T10:37:19.750Z,195
2017-09-20T10:38:19.720Z,200
2017-09-20T10:39:19.678Z,215
2017-09-20T10:40:19.449Z,225
2017-09-20T10:41:19.654Z,240
2017-09-20T10:42:19.329Z,245
2017-09-20T10:43:19.300Z,235
2017-09-20T10:44:19.311Z,270
2017-09-20T10:45:19.921Z,305
2017-09-20T10:46:19.645Z,310
2017-09-20T10:47:19.542Z,295
2017-09-20T10:48:19.225Z,270
2017-09-20T10:49:19.561Z,280
2017-09-20T10:50:19.496Z,300
2017-09-20T10:51:19.170Z,305
2017-09-20T10:52:19.170Z,290
2017-09-20T10:53:19.750Z,280
2017-09-20T10:54:19.760Z,280
2017-09-20T10:55:19.429Z,275
2017-09-20T10:56:19.745Z,270
2017-09-20T10:57:19.388Z,265
2017-09-20T10:58:19.399Z,270
2017-09-20T10:59:19.380Z,270
2017-09-20T11:00:19.373Z,270
2017-09-20T11:01:19.370Z,270
2017-09-20T11:02:19.651Z,250
2017-09-20T11:03:19.609Z,230
2017-09-20T11:04:19.281Z,220
2017-09-20T11:05:19.590Z,220
2017-09-20T11:06:19.559Z,225
2017-09-20T11:07:19.587Z,220
2017-09-20T11:08:19.241Z,200
2017-09-20T11:09:19.520Z,180
2017-09-20T11:10:19.559Z,155
2017-09-20T11:11:19.500Z,130
2017-09-20T11:12:19.498Z,110
2017-09-20T11:13:19.491Z,105
2017-09-20T11:14:19.172Z,110
2017-09-20T11:15:18.820Z,120
2017-09-20T11:16:19.429Z,115
2017-09-20T11:17:19.441Z,120
2017-09-20T11:18:19.086Z,135
2017-09-20T11:19:19.383Z,145
2017-09-20T11:20:19.380Z,150
2017-09-20T11:21:19.351Z,150
2017-09-20T11:22:19.370Z,155
2017-09-20T11:23:19.313Z,155
2017-09-20T11:24:19.322Z,135
2017-09-20T11:25:19.311Z,125
2017-09-20T11:26:19.353Z,125
2017-09-20T11:27:19.301Z,130
2017-09-20T11:28:18.931Z,130
2017-09-20T11:29:18.610Z,135
2017-09-20T11:30:19.213Z,145
2017-09-20T11:31:19.211Z,155
2017-09-20T11:32:19.211Z,160
2017-09-20T11:33:19.195Z,165
2017-09-20T11:34:19.161Z,165
2017-09-20T11:35:19.161Z,160
2017-09-20T11:36:18.902Z,145
2017-09-20T11:37:18.584Z,130
2017-09-20T11:38:19.093Z,125
2017-09-20T11:39:18.814Z,120
2017-09-20T11:40:19.067Z,115
2017-09-20T11:41:19.044Z,110
2017-09-20T11:42:18.719Z,105
2017-09-20T11:43:18.719Z,110
2017-09-20T11:44:19.035Z,105
2017-09-20T11:45:18.360Z,100
2017-09-20T11:46:18.964Z,110
2017-09-20T11:47:18.742Z,115
2017-09-20T11:48:18.721Z,125
2017-09-20T11:49:18.301Z,130
2017-09-20T11:50:18.902Z,140
2017-09-20T11:51:18.587Z,140
2017-09-20T11:52:18.618Z,140
2017-09-20T11:53:18.850Z,145
2017-09-20T11:54:18.541Z,145
2017-09-20T11:55:18.839Z,150
2017-09-20T11:56:18.816Z,150
2017-09-20T11:57:18.511Z,150
2017-09-20T11:58:18.792Z,150
2017-09-20T11:59:18.767Z,150
2017-09-20T12:00:18.490Z,145
2017-09-20T12:01:18.723Z,140
2017-09-20T12:02:18.073Z,135
2017-09-20T12:03:18.695Z,135
2017-09-20T12:04:18.693Z,135
2017-09-20T12:05:18.660Z,135
2017-09-20T12:06:18.780Z,135
2017-09-20T12:07:18.630Z,140
2017-09-20T12:08:18.623Z,135
2017-09-20T12:09:18.278Z,135
2017-09-20T12:10:17.952Z,125
2017-09-20T12:11:18.278Z,120
2017-09-20T12:12:18.688Z,115
2017-09-20T12:13:18.244Z,110
2017-09-20T12:14:17.915Z,100
2017-09-20T12:15:18.222Z,90
2017-09-20T12:16:17.920Z,85
2017-09-20T12:17:18.487Z,85
2017-09-20T12:18:18.550Z,75
2017-09-20T12:19:17.514Z,70
2017-09-20T12:20:18.130Z,65
2017-09-20T12:21:18.357Z,55
2017-09-20T12:22:17.848Z,50
2017-09-20T12:23:18.115Z,45
2017-09-20T12:24:18.102Z,45
2017-09-20T12:25:18.033Z,45
2017-09-20T12:26:18.410Z,45
2017-09-20T12:27:18.016Z,40
2017-09-20T12:28:18.076Z,40
2017-09-20T12:29:17.656Z,40
2017-09-20T12:30:17.963Z,40
2017-09-20T12:31:17.634Z,40
2017-09-20T12:32:17.756Z,35
2017-09-20T12:33:18.249Z,35
2017-09-20T12:34:17.934Z,30
2017-09-20T12:35:18.216Z,30
2017-09-20T12:36:17.920Z,30
2017-09-20T12:37:17.887Z,30
2017-09-20T12:38:17.837Z,35
2017-09-20T12:39:17.821Z,35
2017-09-20T12:40:18.216Z,35
2017-09-20T12:41:18.141Z,35
2017-09-20T12:42:17.838Z,35
2017-09-20T12:43:18.685Z,35
2017-09-20T12:44:17.454Z,35
2017-09-20T12:45:17.768Z,35
2017-09-20T12:46:17.385Z,40
2017-09-20T12:47:17.704Z,40
2017-09-20T12:48:17.993Z,40
2017-09-20T12:49:17.045Z,40
2017-09-20T12:50:17.948Z,45
2017-09-20T12:51:17.601Z,45
2017-09-20T12:52:17.969Z,45
2017-09-20T12:53:17.297Z,45
2017-09-20T12:54:17.582Z,45
2017-09-20T12:55:17.858Z,45
2017-09-20T12:56:17.552Z,45
2017-09-20T12:57:17.514Z,50
2017-09-20T12:58:17.885Z,50
2017-09-20T12:59:17.471Z,55
2017-09-20T13:00:17.454Z,55
2017-09-20T13:01:17.134Z,60
2017-09-20T13:02:17.121Z,65
2017-09-20T13:03:17.171Z,70
2017-09-20T13:04:17.404Z,70
2017-09-20T13:05:17.382Z,75
2017-09-20T13:06:16.811Z,80
2017-09-20T13:07:17.350Z,85
2017-09-20T13:08:17.016Z,85
2017-09-20T13:09:17.001Z,90
2017-09-20T13:10:17.296Z,90
2017-09-20T13:11:17.268Z,90
2017-09-20T13:12:16.960Z,85
2017-09-20T13:13:17.284Z,85
2017-09-20T13:14:17.251Z,80
2017-09-20T13:15:16.921Z,80
2017-09-20T13:16:17.578Z,80
2017-09-20T13:17:16.617Z,80
2017-09-20T13:18:16.834Z,85
2017-09-20T13:19:17.151Z,90
2017-09-20T13:20:17.138Z,95
2017-09-20T13:21:17.146Z,100
2017-09-20T13:22:16.798Z,105
2017-09-20T13:23:17.123Z,105
2017-09-20T13:24:17.071Z,110
2017-09-20T13:25:17.385Z,110
2017-09-20T13:26:16.724Z,110
2017-09-20T13:27:16.725Z,110
2017-09-20T13:28:17.319Z,110
2017-09-20T13:29:17.305Z,115
2017-09-20T13:30:16.946Z,120
2017-09-20T13:31:17.269Z,125
2017-09-20T13:32:16.641Z,130
2017-09-20T13:33:16.936Z,135
2017-09-20T13:34:17.242Z,135
2017-09-20T13:35:17.226Z,135
2017-09-20T13:36:17.162Z,135
2017-09-20T13:37:16.986Z,140
2017-09-20T13:38:16.859Z,130
2017-09-20T13:39:17.150Z,125
2017-09-20T13:40:16.511Z,120
2017-09-20T13:41:17.121Z,115
2017-09-20T13:42:16.785Z,115
2017-09-20T13:43:17.045Z,115
2017-09-20T13:44:16.751Z,115
2017-09-20T13:45:16.722Z,110
2017-09-20T13:46:17.021Z,105
2017-09-20T13:47:17.009Z,95
2017-09-20T13:48:17.010Z,90
2017-09-20T13:49:16.981Z,85
2017-09-20T13:50:16.980Z,80
2017-09-20T13:51:16.390Z,80
2017-09-20T13:52:16.930Z,80
2017-09-20T13:53:16.318Z,75
2017-09-20T13:54:16.894Z,75
2017-09-20T13:55:16.897Z,75
2017-09-20T13:56:16.895Z,75
2017-09-20T13:57:16.249Z,75
2017-09-20T13:58:16.849Z,75
2017-09-20T13:59:16.851Z,70
2017-09-20T14:00:16.846Z,70
2017-09-20T14:01:16.856Z,70
2017-09-20T14:02:16.789Z,70
2017-09-20T14:03:16.769Z,70
2017-09-20T14:04:16.753Z,70
2017-09-20T14:05:16.753Z,70
2017-09-20T14:06:16.732Z,70
2017-09-20T14:07:16.378Z,70
2017-09-20T14:08:16.380Z,65
2017-09-20T14:09:16.349Z,65
2017-09-20T14:10:16.356Z,65
2017-09-20T14:11:16.666Z,70
2017-09-20T14:12:16.294Z,70
2017-09-20T14:13:16.286Z,70
2017-09-20T14:14:16.599Z,65
2017-09-20T14:15:16.548Z,60
2017-09-20T14:16:16.228Z,60
2017-09-20T14:17:16.547Z,65
2017-09-20T14:18:16.542Z,65
2017-09-20T14:19:16.518Z,70